Time;durP1;ratioP1;P1;durP2;ratioP2;P2;SDS_P1;SDS_P2;PMS_P1;PMS_P2;Temp;Humidity;BMP_temperature;BMP_pressure;BME280_temperature;BME280_humidity;BME280_pressure;Samples;Min_cycle;Max_cycle;Signal;HPM_P1;HPM_P2
2022/03/20 00:02:35;;;;;;;;;;;;;;;;;;;;;
2022/03/20 00:05:17;;;;;;;;;;;;;;;22.05;23.75;103398.59;104740;1306;72721;-84
2022/03/20 00:07:57;;;;;;;;;;;;;;;22.05;23.75;103396.61;104437;1309;74975;-81
2022/03/20 00:10:33;;;;;;;;;;;;;;;22.05;23.52;103394.48;104651;1309;60386;-85
2022/03/20 00:13:20;;;;;;;;;;;;;;;;;;;;;
2022/03/20 00:15:59;;;;;;;;;;;;;;;22.04;23.44;103394.48;104609;1308;72636;-85
2022/03/20 00:18:54;;;;;;;;;;;;;;;22.05;23.61;103394.64;104633;1308;73875;-83
2022/03/20 00:21:32;;;;;;;;;;;;;;;22.05;23.67;103394.83;104504;1309;60435;-82
2022/03/20 00:24:01;;;;;;;;;;;;;;;22.04;23.78;103392.50;104603;1308;60486;-81
2022/03/20 00:26:43;;;;;;;;;;;;;;;22.05;23.68;103391.42;104574;1309;73773;-85
2022/03/20 00:29:37;;;;;;;;;;;;;;;22.05;23.62;103392.67;104495;1309;74145;-81
2022/03/20 00:32:13;;;;;;;;;;;;;;;22.05;23.65;103393.58;104182;1317;60642;-81
2022/03/20 00:34:56;;;;;;;;;;;;;;;22.04;23.49;103389.98;104093;1316;60672;-84
2022/03/20 00:37:29;;;;;;;;;;;;;;;22.05;23.72;103388.89;104193;1316;72828;-84
2022/03/20 00:40:17;;;;;;;;;;;;;;;22.05;23.55;103386.40;104226;1314;74049;-84
2022/03/20 00:43:01;;;;;;;;;;;;;;;22.05;23.58;103385.68;104273;1314;60576;-82
2022/03/20 00:45:30;;;;;;;;;;;;;;;22.05;23.65;103380.13;104307;1314;60369;-82
2022/03/20 00:48:19;;;;;;;;;;;;;;;22.05;23.54;103383.16;104302;1312;71530;-82
2022/03/20 00:51:17;;;;;;;;;;;;;;;22.04;23.53;103382.09;104311;1314;75504;-84
2022/03/20 00:53:42;;;;;;;;;;;;;;;22.04;23.70;103379.60;104323;1314;61747;-85
2022/03/20 00:56:27;;;;;;;;;;;;;;;;;;;;;
2022/03/20 00:59:01;;;;;;;;;;;;;;;22.05;23.59;103385.67;104271;1314;73995;-84
2022/03/20 01:01:45;;;;;;;;;;;;;;;22.05;23.55;103390.16;104236;1314;73739;-85
2022/03/20 01:04:18;;;;;;;;;;;;;;;22.05;23.56;103386.93;104309;1313;60622;-83
2022/03/20 01:07:10;;;;;;;;;;;;;;;22.04;23.59;103384.08;104295;1314;60529;-84
2022/03/20 01:09:44;;;;;;;;;;;;;;;22.05;23.46;103386.93;104052;1312;73767;-85
2022/03/20 01:12:33;;;;;;;;;;;;;;;22.04;23.59;103387.12;104275;1313;75331;-82
2022/03/20 01:15:15;;;;;;;;;;;;;;;22.05;23.53;103387.30;104313;1314;60555;-83
2022/03/20 01:17:46;;;;;;;;;;;;;;;22.04;23.53;103387.48;104399;1312;60379;-84
2022/03/20 01:20:28;;;;;;;;;;;;;;;22.05;23.53;103390.52;104334;1312;72836;-84
2022/03/20 01:23:24;;;;;;;;;;;;;;;22.05;23.45;103391.23;104225;1314;74936;-84
2022/03/20 01:26:01;;;;;;;;;;;;;;;22.04;23.45;103390.35;104422;1312;60327;-83
2022/03/20 01:28:41;;;;;;;;;;;;;;;22.04;23.49;103391.08;104395;1312;60857;-84
2022/03/20 01:31:08;;;;;;;;;;;;;;;22.05;23.46;103390.70;104256;1313;72647;-83
2022/03/20 01:33:45;;;;;;;;;;;;;;;22.04;23.45;103387.48;104250;1314;73995;-82
2022/03/20 01:36:31;;;;;;;;;;;;;;;22.04;23.50;103387.14;104312;1311;60665;-84
2022/03/20 01:39:11;;;;;;;;;;;;;;;22.04;23.59;103389.13;103598;1319;60519;-90
2022/03/20 01:42:06;;;;;;;;;;;;;;;;;;;;;
2022/03/20 01:44:52;;;;;;;;;;;;;;;22.04;23.49;103377.99;103910;1318;74702;-83
2022/03/20 01:47:31;;;;;;;;;;;;;;;22.04;23.45;103374.59;104021;1312;61154;-86
2022/03/20 01:50:19;;;;;;;;;;;;;;;22.04;23.52;103370.80;103859;1318;60773;-82
2022/03/20 01:53:02;;;;;;;;;;;;;;;22.05;23.48;103371.89;103834;1319;73033;-84
2022/03/20 01:55:47;;;;;;;;;;;;;;;22.05;23.56;103371.88;103811;1318;74948;-83
2022/03/20 01:58:18;;;;;;;;;;;;;;;22.04;23.61;103370.79;103566;1319;61407;-83
2022/03/20 02:01:13;;;;;;;;;;;;;;;22.05;23.59;103376.35;103536;1319;60362;-82
2022/03/20 02:04:04;;;;;;;;;;;;;;;;;;;;;
2022/03/20 02:06:41;;;;;;;;;;;;;;;22.05;23.28;103381.01;103798;1319;73965;-82
2022/03/20 02:09:35;;;;;;;;;;;;;;;22.05;23.48;103382.63;103824;1319;60474;-89
2022/03/20 02:12:17;;;;;;;;;;;;;;;22.05;23.57;103382.25;103474;1319;60985;-80
2022/03/20 02:15:05;;;;;;;;;;;;;;;22.05;23.39;103377.95;103830;1319;73645;-79
2022/03/20 02:17:51;;;;;;;;;;;;;;;22.05;23.48;103378.86;103492;1319;74904;-83
2022/03/20 02:20:35;;;;;;;;;;;;;;;22.05;23.63;103377.09;103494;1320;60621;-83
2022/03/20 02:23:17;;;;;;;;;;;;;;;22.05;23.50;103377.96;103486;1318;60575;-85
2022/03/20 02:26:06;;;;;;;;;;;;;;;22.05;23.51;103375.99;103475;1319;74272;-84
2022/03/20 02:28:59;;;;;;;;;;;;;;;22.04;23.45;103381.55;104101;1312;75123;-86
2022/03/20 02:31:46;;;;;;;;;;;;;;;22.05;23.48;103384.25;104070;1318;60370;-83
2022/03/20 02:34:33;;;;;;;;;;;;;;;22.05;23.49;103381.00;104136;1315;60872;-82
2022/03/20 02:36:58;;;;;;;;;;;;;;;22.05;23.41;103386.20;104112;1315;74047;-85
2022/03/20 02:39:52;;;;;;;;;;;;;;;22.05;23.58;103388.01;104172;1315;75015;-83
2022/03/20 02:42:41;;;;;;;;;;;;;;;22.05;23.46;103388.33;104157;1315;60585;-81
2022/03/20 02:45:27;;;;;;;;;;;;;;;;;;;;;
2022/03/20 02:48:11;;;;;;;;;;;;;;;22.05;23.37;103382.77;104271;1315;73556;-88
2022/03/20 02:50:48;;;;;;;;;;;;;;;22.05;23.38;103382.81;104439;1312;74632;-83
2022/03/20 02:53:28;;;;;;;;;;;;;;;22.04;23.58;103380.84;104442;1311;60516;-86
2022/03/20 02:56:23;;;;;;;;;;;;;;;22.05;23.49;103380.30;104438;1312;60382;-83
2022/03/20 02:58:51;;;;;;;;;;;;;;;22.05;23.47;103383.86;104462;1312;73983;-84
2022/03/20 03:01:35;;;;;;;;;;;;;;;22.05;23.45;103383.88;104327;1312;74976;-84
2022/03/20 03:04:18;;;;;;;;;;;;;;;22.05;23.33;103379.77;104451;1311;61131;-84
2022/03/20 03:06:44;;;;;;;;;;;;;;;22.05;23.59;103382.10;104472;1312;60963;-85
2022/03/20 03:12:34;;;;;;;;;;;;;;;22.05;23.46;103386.22;104761;1306;75528;-86
2022/03/20 03:15:19;;;;;;;;;;;;;;;22.05;23.56;103389.09;104686;1306;60431;-85
2022/03/20 03:18:01;;;;;;;;;;;;;;;22.05;23.33;103391.42;104704;1306;60767;-82
2022/03/20 03:20:35;;;;;;;;;;;;;;;22.05;23.24;103391.42;104646;1307;72607;-85
2022/03/20 03:23:17;;;;;;;;;;;;;;;22.04;23.49;103389.64;104772;1306;75116;-82
2022/03/20 03:26:09;;;;;;;;;;;;;;;22.04;23.32;103390.18;104766;1306;60453;-84
2022/03/20 03:28:52;;;;;;;;;;;;;;;22.04;23.45;103385.70;104792;1306;60605;-84
2022/03/20 03:31:33;;;;;;;;;;;;;;;22.04;23.47;103384.44;104696;1307;73840;-82
2022/03/20 03:37:12;;;;;;;;;;;;;;;22.04;23.38;103387.33;104403;1312;61254;-80
2022/03/20 03:39:47;;;;;;;;;;;;;;;22.04;23.39;103386.42;104453;1312;61248;-84
2022/03/20 03:42:12;;;;;;;;;;;;;;;22.04;23.31;103385.88;104605;1306;72964;-85
2022/03/20 03:45:01;;;;;;;;;;;;;;;22.04;23.47;103387.87;104668;1306;74046;-84
2022/03/20 03:47:37;;;;;;;;;;;;;;;22.03;23.48;103388.05;104846;1306;60488;-82
2022/03/20 03:50:23;;;;;;;;;;;;;;;22.04;23.60;103390.02;104693;1306;60431;-88
2022/03/20 03:52:59;;;;;;;;;;;;;;;22.04;23.37;103396.65;104708;1306;72203;-86
2022/03/20 03:55:47;;;;;;;;;;;;;;;22.04;23.35;103393.23;104408;1312;75430;-82
2022/03/20 03:58:46;;;;;;;;;;;;;;;22.04;23.53;103396.46;104328;1312;60351;-84
2022/03/20 04:01:27;;;;;;;;;;;;;;;22.04;23.31;103396.48;104398;1312;60499;-79
2022/03/20 04:03:53;;;;;;;;;;;;;;;22.04;23.39;103398.27;104404;1312;73012;-81
2022/03/20 04:07:01;;;;;;;;;;;;;;;22.03;23.41;103397.73;104387;1312;75513;-84
2022/03/20 04:09:45;;;;;;;;;;;;;;;22.04;23.37;103396.84;104449;1312;61250;-85
2022/03/20 04:13:08;;;;;;;;;;;;;;;22.04;23.37;103396.11;104428;1312;60374;-83
2022/03/20 04:15:26;;;;;;;;;;;;;;;22.03;23.41;103398.63;104399;1312;73725;-83
2022/03/20 04:18:03;;;;;;;;;;;;;;;22.04;23.34;103398.61;104399;1312;74113;-85
2022/03/20 04:20:38;;;;;;;;;;;;;;;22.04;23.38;103397.71;104308;1312;60489;-86
2022/03/20 04:26:41;;;;;;;;;;;;;;;22.04;23.41;103400.40;104167;1315;71515;-85
2022/03/20 04:29:24;;;;;;;;;;;;;;;22.04;23.48;103401.84;104228;1315;74521;-82
2022/03/20 04:32:08;;;;;;;;;;;;;;;22.04;23.34;103405.60;104143;1315;60588;-82
2022/03/20 04:34:48;;;;;;;;;;;;;;;22.04;23.33;103406.86;104329;1312;60501;-83
2022/03/20 04:37:39;;;;;;;;;;;;;;;22.05;23.37;103410.61;104405;1312;71484;-86
2022/03/20 04:40:11;;;;;;;;;;;;;;;22.04;23.19;103410.27;104413;1312;74122;-86
2022/03/20 04:42:59;;;;;;;;;;;;;;;22.05;23.15;103415.27;104436;1312;60396;-85
2022/03/20 04:46:08;;;;;;;;;;;;;;;22.04;23.25;103421.74;104441;1312;60633;-85
2022/03/20 05:00:58;;;;;;;;;;;;;;;22.06;23.34;103420.61;104144;1318;74342;-89
2022/03/20 05:03:35;;;;;;;;;;;;;;;22.05;23.21;103425.46;104231;1312;74140;-82
2022/03/20 05:06:03;;;;;;;;;;;;;;;22.06;23.48;103427.05;104404;1312;61235;-86
2022/03/20 05:13:19;;;;;;;;;;;;;;;22.06;23.43;103428.48;104303;1313;60647;-86
2022/03/20 05:14:28;;;;;;;;;;;;;;;22.06;23.18;103431.16;104362;1312;74004;-82
2022/03/20 05:17:07;;;;;;;;;;;;;;;22.06;23.24;103431.52;104390;1312;61352;-83
2022/03/20 05:19:52;;;;;;;;;;;;;;;22.07;23.19;103434.91;104335;1312;60677;-82
2022/03/20 05:22:36;;;;;;;;;;;;;;;22.07;23.37;103440.83;104337;1312;72860;-85
2022/03/20 05:25:09;;;;;;;;;;;;;;;22.07;23.25;103442.07;104216;1312;73905;-83
2022/03/20 05:27:47;;;;;;;;;;;;;;;22.07;23.44;103444.59;104352;1312;60493;-82
2022/03/20 05:30:15;;;;;;;;;;;;;;;22.07;23.34;103448.88;104394;1312;60453;-83
2022/03/20 05:33:10;;;;;;;;;;;;;;;;;;;;;
2022/03/20 05:36:09;;;;;;;;;;;;;;;;;;;;;
2022/03/20 05:38:38;;;;;;;;;;;;;;;22.07;23.39;103445.46;104562;1306;60448;-84
2022/03/20 05:44:23;;;;;;;;;;;;;;;22.08;23.23;103446.89;104662;1309;74712;-81
2022/03/20 05:47:02;;;;;;;;;;;;;;;22.08;23.29;103448.86;104791;1306;75208;-84
2022/03/20 05:49:35;;;;;;;;;;;;;;;22.08;23.31;103453.35;104688;1306;60472;-84
2022/03/20 05:52:40;;;;;;;;;;;;;;;22.09;23.15;103458.36;104806;1306;60578;-84
2022/03/20 05:58:57;;;;;;;;;;;;;;;;;;;;;
2022/03/20 06:01:34;;;;;;;;;;;;;;;22.09;23.16;103455.13;104800;1306;61202;-87
2022/03/20 06:04:21;;;;;;;;;;;;;;;22.08;23.13;103453.33;104808;1306;60453;-83
2022/03/20 06:07:25;;;;;;;;;;;;;;;22.09;23.08;103450.45;104425;1312;72202;-86
2022/03/20 06:10:02;;;;;;;;;;;;;;;22.09;23.15;103448.64;104427;1312;73929;-83
2022/03/20 06:12:34;;;;;;;;;;;;;;;22.09;23.21;103451.34;104229;1312;61186;-82
2022/03/20 06:15:20;;;;;;;;;;;;;;;22.10;23.26;103452.36;104239;1312;60817;-82
2022/03/20 06:17:49;;;;;;;;;;;;;;;22.10;23.09;103453.98;104236;1312;60722;-81
2022/03/20 06:20:33;;;;;;;;;;;;;;;22.11;23.16;103457.73;104314;1312;74043;-82
2022/03/20 06:23:19;;;;;;;;;;;;;;;22.12;23.23;103461.48;104300;1312;60708;-81
2022/03/20 06:26:02;;;;;;;;;;;;;;;22.12;23.18;103459.14;104250;1312;60640;-81
2022/03/20 06:28:28;;;;;;;;;;;;;;;22.13;23.19;103461.60;104259;1312;72962;-81
2022/03/20 06:31:23;;;;;;;;;;;;;;;22.13;23.12;103458.55;103787;1318;72826;-82
2022/03/20 06:33:59;;;;;;;;;;;;;;;22.15;23.10;103462.29;103819;1318;60952;-83
2022/03/20 06:36:53;;;;;;;;;;;;;;;22.15;23.04;103461.20;103903;1318;60502;-84
2022/03/20 06:39:42;;;;;;;;;;;;;;;22.16;23.23;103456.15;104137;1318;73202;-85
2022/03/20 06:42:26;;;;;;;;;;;;;;;;;;;;;
2022/03/20 06:48:17;;;;;;;;;;;;;;;;;;;;;
2022/03/20 06:50:50;;;;;;;;;;;;;;;22.18;23.14;103466.28;104421;1312;72672;-83
2022/03/20 06:53:56;;;;;;;;;;;;;;;;;;;;;
2022/03/20 06:56:22;;;;;;;;;;;;;;;22.19;23.14;103469.31;104336;1312;60944;-83
2022/03/20 07:02:10;;;;;;;;;;;;;;;;;;;;;
2022/03/20 07:04:40;;;;;;;;;;;;;;;22.21;22.97;103473.88;104396;1312;73914;-86
2022/03/20 07:07:27;;;;;;;;;;;;;;;22.22;23.10;103472.23;104350;1312;60760;-84
2022/03/20 07:10:07;;;;;;;;;;;;;;;22.24;23.09;103464.30;104729;1306;60985;-87
2022/03/20 07:12:50;;;;;;;;;;;;;;;22.24;23.00;103460.70;104766;1306;73098;-85
2022/03/20 07:15:25;;;;;;;;;;;;;;;22.24;23.18;103458.36;104796;1305;75251;-83
2022/03/20 07:17:54;;;;;;;;;;;;;;;22.25;23.00;103454.75;104801;1306;60382;-83
2022/03/20 07:20:39;;;;;;;;;;;;;;;22.25;22.94;103456.19;104724;1306;61376;-82
2022/03/20 07:23:09;;;;;;;;;;;;;;;22.26;22.87;103454.73;104720;1306;73805;-87
2022/03/20 07:31:58;;;;;;;;;;;;;;;22.27;22.95;103464.73;104423;1312;61156;-84
2022/03/20 07:34:37;;;;;;;;;;;;;;;22.28;22.96;103458.59;104349;1312;72667;-85
2022/03/20 07:37:03;;;;;;;;;;;;;;;22.29;23.01;103458.04;104404;1312;74845;-80
2022/03/20 07:39:41;;;;;;;;;;;;;;;22.30;22.85;103463.56;104420;1312;60716;-84
2022/03/20 07:42:08;;;;;;;;;;;;;;;22.30;22.99;103453.30;104393;1312;61756;-89
2022/03/20 07:44:54;;;;;;;;;;;;;;;22.31;23.03;103454.38;104401;1312;72779;-86
2022/03/20 07:47:26;;;;;;;;;;;;;;;22.31;23.08;103451.86;104038;1318;73943;-80
2022/03/20 07:50:11;;;;;;;;;;;;;;;22.31;22.83;103449.52;104052;1318;60542;-82
2022/03/20 07:52:39;;;;;;;;;;;;;;;22.31;22.95;103449.17;103409;1321;60372;-83
2022/03/20 07:55:28;;;;;;;;;;;;;;;22.32;22.76;103450.02;103580;1321;72703;-85
2022/03/20 07:57:54;;;;;;;;;;;;;;;22.32;23.09;103441.23;103359;1321;75110;-84
2022/03/20 08:00:48;;;;;;;;;;;;;;;22.33;22.87;103450.36;103608;1319;60656;-85
2022/03/20 08:03:27;;;;;;;;;;;;;;;22.33;22.87;103448.38;103496;1321;60510;-82
2022/03/20 08:06:00;;;;;;;;;;;;;;;22.33;22.89;103438.32;103620;1319;74096;-85
2022/03/20 08:08:52;;;;;;;;;;;;;;;22.34;22.81;103443.88;103691;1318;75036;-84
2022/03/20 08:11:37;;;;;;;;;;;;;;;22.34;22.78;103440.10;104241;1315;60629;-82
2022/03/20 08:14:26;;;;;;;;;;;;;;;22.33;23.03;103441.02;103299;1323;61362;-84
2022/03/20 08:16:52;;;;;;;;;;;;;;;22.34;22.87;103436.15;103338;1321;72876;-86
2022/03/20 08:19:23;;;;;;;;;;;;;;;22.34;22.81;103435.95;103628;1319;60481;-85
2022/03/20 08:22:08;;;;;;;;;;;;;;;22.34;22.97;103433.80;103541;1320;60492;-84
2022/03/20 08:24:37;;;;;;;;;;;;;;;22.35;22.72;103431.28;103762;1312;60495;-86
2022/03/20 08:27:30;;;;;;;;;;;;;;;22.34;22.77;103431.46;104399;1312;74258;-82
2022/03/20 08:30:04;;;;;;;;;;;;;;;22.34;22.62;103426.81;104415;1312;75153;-82
2022/03/20 08:32:38;;;;;;;;;;;;;;;22.35;22.90;103427.33;104370;1312;61906;-88
2022/03/20 08:35:04;;;;;;;;;;;;;;;22.35;22.65;103427.70;104425;1312;61362;-83
2022/03/20 08:37:53;;;;;;;;;;;;;;;22.35;22.82;103423.03;103547;1319;71541;-83
2022/03/20 08:40:30;;;;;;;;;;;;;;;22.35;22.76;103418.90;103655;1319;73974;-83
2022/03/20 08:43:15;;;;;;;;;;;;;;;22.35;22.85;103415.67;103384;1320;61292;-79
2022/03/20 08:45:54;;;;;;;;;;;;;;;22.36;22.87;103412.63;103503;1320;60921;-86
2022/03/20 08:48:26;;;;;;;;;;;;;;;22.35;22.84;103412.44;103663;1319;72795;-85
2022/03/20 08:51:19;;;;;;;;;;;;;;;22.36;22.89;103411.89;103925;1313;74975;-84
2022/03/20 08:53:59;;;;;;;;;;;;;;;22.36;22.85;103411.52;104239;1314;60491;-85
2022/03/20 08:56:50;;;;;;;;;;;;;;;22.36;22.69;103400.94;104324;1313;61380;-86
2022/03/20 08:59:28;;;;;;;;;;;;;;;22.37;22.69;103397.14;104328;1313;72942;-84
2022/03/20 09:01:54;;;;;;;;;;;;;;;22.36;22.59;103396.98;104316;1313;74246;-84
2022/03/20 09:04:32;;;;;;;;;;;;;;;22.37;22.89;103391.92;104226;1314;61400;-82
2022/03/20 09:07:03;;;;;;;;;;;;;;;22.37;22.68;103386.55;104327;1313;61389;-84
2022/03/20 09:09:39;;;;;;;;;;;;;;;22.36;22.86;103379.92;104349;1313;74087;-85
2022/03/20 09:12:39;;;;;;;;;;;;;;;22.37;22.70;103385.48;104153;1314;72736;-90
2022/03/20 09:15:13;;;;;;;;;;;;;;;22.36;22.63;103376.35;104436;1306;60436;-84
2022/03/20 09:20:39;;;;;;;;;;;;;;;22.36;22.69;103377.41;104702;1305;74268;-80
2022/03/20 09:23:29;;;;;;;;;;;;;;;22.36;22.83;103366.30;104759;1306;76458;-84
2022/03/20 09:26:00;;;;;;;;;;;;;;;22.37;22.59;103375.42;104935;1306;60385;-80
2022/03/20 09:28:46;;;;;;;;;;;;;;;;;;;;;
2022/03/20 09:31:19;;;;;;;;;;;;;;;22.37;22.57;103366.27;104744;1305;72617;-83
2022/03/20 09:33:52;;;;;;;;;;;;;;;22.37;22.76;103365.38;104694;1306;75531;-83
2022/03/20 09:36:29;;;;;;;;;;;;;;;22.38;22.84;103368.94;104725;1306;60493;-82
2022/03/20 09:38:54;;;;;;;;;;;;;;;22.38;22.65;103378.77;104821;1305;60411;-81
2022/03/20 09:41:45;;;;;;;;;;;;;;;22.38;22.71;103373.58;104302;1312;73182;-88
2022/03/20 09:44:39;;;;;;;;;;;;;;;;;;;;;
2022/03/20 09:47:12;;;;;;;;;;;;;;;22.38;22.75;103369.81;104365;1312;61383;-83
2022/03/20 09:50:24;;;;;;;;;;;;;;;22.38;22.93;103362.98;104358;1312;60468;-87
2022/03/20 09:52:59;;;;;;;;;;;;;;;22.40;22.86;103368.88;104352;1312;74290;-83
2022/03/20 09:55:53;;;;;;;;;;;;;;;;;;;;;
2022/03/20 09:58:31;;;;;;;;;;;;;;;22.39;22.70;103359.02;104309;1312;60352;-84
2022/03/20 10:01:07;;;;;;;;;;;;;;;22.39;22.76;103357.58;104337;1312;61611;-86
2022/03/20 10:03:53;;;;;;;;;;;;;;;22.40;22.65;103351.27;104351;1312;73669;-86
2022/03/20 10:06:25;;;;;;;;;;;;;;;22.40;22.75;103344.61;104318;1312;75054;-83
2022/03/20 10:09:29;;;;;;;;;;;;;;;22.41;22.71;103335.46;104296;1312;61311;-83
2022/03/20 10:12:24;;;;;;;;;;;;;;;22.40;22.67;103337.63;104345;1312;61407;-83
2022/03/20 10:14:58;;;;;;;;;;;;;;;22.41;22.72;103331.52;104325;1312;72995;-82
2022/03/20 10:18:04;;;;;;;;;;;;;;;22.41;22.91;103326.65;103413;1320;72732;-84
2022/03/20 10:20:59;;;;;;;;;;;;;;;22.41;22.68;103330.24;104373;1312;61184;-84
2022/03/20 10:23:54;;;;;;;;;;;;;;;22.40;22.80;103330.27;103650;1320;60524;-87
2022/03/20 10:26:50;;;;;;;;;;;;;;;22.40;22.89;103330.24;103751;1318;71618;-86
2022/03/20 10:29:57;;;;;;;;;;;;;;;22.40;22.80;103328.11;103052;1323;75519;-85
2022/03/20 10:32:46;;;;;;;;;;;;;;;22.40;22.77;103329.55;102757;1329;61212;-82
2022/03/20 10:35:33;;;;;;;;;;;;;;;22.40;22.59;103330.27;102709;1329;61660;-81
2022/03/20 10:38:18;;;;;;;;;;;;;;;22.40;22.68;103321.31;102784;1329;74034;-82
2022/03/20 10:41:26;;;;;;;;;;;;;;;22.39;22.73;103310.20;102659;1327;72772;-84
2022/03/20 10:44:31;;;;;;;;;;;;;;;;;;;;;
2022/03/20 10:47:13;;;;;;;;;;;;;;;;;;;;;
2022/03/20 10:49:59;;;;;;;;;;;;;;;;;;;;;
2022/03/20 10:52:55;;;;;;;;;;;;;;;22.41;22.68;103291.11;102804;1330;73962;-89
2022/03/20 10:55:27;;;;;;;;;;;;;;;22.41;22.64;103289.67;102541;1329;61340;-85
2022/03/20 10:58:18;;;;;;;;;;;;;;;22.41;22.88;103283.76;102582;1329;61756;-83
2022/03/20 11:01:12;;;;;;;;;;;;;;;22.42;22.81;103283.55;102407;1329;71514;-83
2022/03/20 11:03:47;;;;;;;;;;;;;;;22.42;22.70;103285.34;102603;1329;74565;-84
2022/03/20 11:06:15;;;;;;;;;;;;;;;22.43;22.73;103279.94;102586;1324;60532;-84
2022/03/20 11:09:11;;;;;;;;;;;;;;;22.42;22.76;103267.04;103054;1319;62221;-82
2022/03/20 11:11:44;;;;;;;;;;;;;;;22.42;22.82;103267.74;103719;1321;73591;-84
2022/03/20 11:14:24;;;;;;;;;;;;;;;22.42;22.71;103257.35;103689;1321;74542;-82
2022/03/20 11:17:30;;;;;;;;;;;;;;;;;;;;;
2022/03/20 11:19:57;;;;;;;;;;;;;;;22.43;22.71;103241.36;103798;1319;61400;-82
2022/03/20 11:22:39;;;;;;;;;;;;;;;22.43;22.53;103248.00;103711;1318;73923;-81
2022/03/20 11:25:17;;;;;;;;;;;;;;;22.42;22.76;103236.52;103648;1318;74462;-83
2022/03/20 11:28:01;;;;;;;;;;;;;;;22.43;22.74;103241.15;103631;1320;60408;-84
2022/03/20 11:30:39;;;;;;;;;;;;;;;22.43;22.69;103241.70;103812;1320;60347;-85
2022/03/20 11:33:31;;;;;;;;;;;;;;;22.43;22.93;103240.96;104031;1314;72831;-84
2022/03/20 11:36:07;;;;;;;;;;;;;;;22.43;22.58;103222.84;104257;1313;74982;-83
2022/03/20 11:38:38;;;;;;;;;;;;;;;22.43;22.73;103220.71;104519;1306;61251;-87
2022/03/20 11:41:35;;;;;;;;;;;;;;;22.43;22.56;103222.50;104713;1306;60714;-85
2022/03/20 11:44:35;;;;;;;;;;;;;;;22.43;22.69;103220.52;104466;1311;74340;-84
2022/03/20 11:47:49;;;;;;;;;;;;;;;;;;;;;
2022/03/20 11:50:16;;;;;;;;;;;;;;;22.43;22.74;103204.54;103614;1319;60510;-81
2022/03/20 11:52:58;;;;;;;;;;;;;;;22.44;22.73;103202.19;103507;1321;60561;-81
2022/03/20 11:55:46;;;;;;;;;;;;;;;22.44;22.88;103193.77;103632;1320;73712;-82
2022/03/20 11:58:32;;;;;;;;;;;;;;;22.44;22.84;103194.48;102751;1325;74189;-89
2022/03/20 12:01:12;;;;;;;;;;;;;;;22.45;22.71;103184.77;102735;1328;60574;-83
2022/03/20 12:04:11;;;;;;;;;;;;;;;22.45;22.80;103191.57;102762;1329;60426;-83
2022/03/20 12:07:09;;;;;;;;;;;;;;;22.46;22.89;103186.16;102752;1329;74008;-84
2022/03/20 12:10:03;;;;;;;;;;;;;;;22.46;22.76;103185.59;102680;1327;74001;-87
2022/03/20 12:12:44;;;;;;;;;;;;;;;22.46;22.88;103177.02;102752;1329;60488;-82
2022/03/20 12:15:23;;;;;;;;;;;;;;;22.46;22.90;103172.73;102737;1329;61486;-83
2022/03/20 12:18:06;;;;;;;;;;;;;;;22.46;22.90;103169.28;102749;1329;73869;-83
2022/03/20 12:21:02;;;;;;;;;;;;;;;22.47;22.91;103165.84;103083;1315;74229;-83
2022/03/20 12:26:46;;;;;;;;;;;;;;;22.46;22.74;103154.39;104149;1315;60526;-84
2022/03/20 12:29:38;;;;;;;;;;;;;;;22.46;22.80;103151.86;104301;1315;72784;-86
2022/03/20 12:32:16;;;;;;;;;;;;;;;22.46;22.97;103154.55;104225;1315;74045;-85
2022/03/20 12:35:05;;;;;;;;;;;;;;;22.46;22.87;103153.30;104192;1309;60616;-82
2022/03/20 12:37:37;;;;;;;;;;;;;;;22.47;22.91;103150.05;104597;1307;61446;-81
2022/03/20 12:40:31;;;;;;;;;;;;;;;22.47;22.85;103142.86;104534;1308;73846;-82
2022/03/20 12:43:13;;;;;;;;;;;;;;;22.47;22.86;103136.05;104080;1317;74869;-88
2022/03/20 12:46:01;;;;;;;;;;;;;;;22.48;22.91;103132.98;104100;1316;61417;-85
2022/03/20 12:48:36;;;;;;;;;;;;;;;22.48;22.86;103132.77;103398;1320;61509;-79
2022/03/20 12:51:10;;;;;;;;;;;;;;;22.49;22.96;103129.34;103560;1320;74013;-83
2022/03/20 12:53:49;;;;;;;;;;;;;;;22.49;22.94;103133.29;103384;1320;73873;-83
2022/03/20 12:59:33;;;;;;;;;;;;;;;22.49;22.85;103112.10;103113;1320;60568;-85
2022/03/20 13:02:15;;;;;;;;;;;;;;;22.50;22.93;103115.66;103423;1320;73947;-82
2022/03/20 13:05:27;;;;;;;;;;;;;;;22.50;22.83;103118.15;102744;1329;71907;-83
2022/03/20 13:08:01;;;;;;;;;;;;;;;22.50;22.83;103121.19;102706;1329;60287;-83
2022/03/20 13:10:45;;;;;;;;;;;;;;;;;;;;;
2022/03/20 13:13:20;;;;;;;;;;;;;;;22.51;22.90;103120.64;102658;1329;72944;-84
2022/03/20 13:16:04;;;;;;;;;;;;;;;22.51;22.97;103116.49;102645;1329;74029;-82
2022/03/20 13:19:00;;;;;;;;;;;;;;;22.51;22.90;103106.64;102650;1329;60430;-83
2022/03/20 13:21:25;;;;;;;;;;;;;;;22.51;23.00;103106.27;103112;1322;60539;-82
2022/03/20 13:23:56;;;;;;;;;;;;;;;22.52;22.88;103108.02;103250;1322;60584;-83
2022/03/20 13:26:36;;;;;;;;;;;;;;;;;;;;;
2022/03/20 13:29:21;;;;;;;;;;;;;;;22.52;22.90;103103.19;103916;1317;60288;-84
2022/03/20 13:32:21;;;;;;;;;;;;;;;22.53;23.08;103104.92;104078;1317;61843;-80
2022/03/20 13:34:57;;;;;;;;;;;;;;;22.54;23.04;103104.52;104126;1317;74083;-88
2022/03/20 13:37:32;;;;;;;;;;;;;;;22.54;22.88;103098.41;103832;1317;73830;-81
2022/03/20 13:40:04;;;;;;;;;;;;;;;22.54;22.97;103094.10;103636;1317;61095;-85
2022/03/20 13:42:39;;;;;;;;;;;;;;;22.55;23.05;103095.52;103935;1309;60648;-83
2022/03/20 13:45:19;;;;;;;;;;;;;;;22.56;23.01;103098.88;104590;1307;73637;-82
2022/03/20 13:48:04;;;;;;;;;;;;;;;22.57;22.94;103093.27;104594;1309;74062;-82
2022/03/20 13:50:48;;;;;;;;;;;;;;;22.57;23.12;103087.88;104440;1309;60460;-86
2022/03/20 13:53:40;;;;;;;;;;;;;;;22.58;23.00;103084.99;104486;1307;60629;-83
2022/03/20 13:56:30;;;;;;;;;;;;;;;22.58;22.89;103082.64;104629;1308;73856;-83
2022/03/20 13:59:14;;;;;;;;;;;;;;;22.59;22.96;103090.88;104578;1308;74745;-79
2022/03/20 14:02:11;;;;;;;;;;;;;;;22.59;23.09;103089.42;104660;1309;60351;-83
2022/03/20 14:04:49;;;;;;;;;;;;;;;;;;;;;
2022/03/20 14:07:52;;;;;;;;;;;;;;;22.58;22.96;103082.80;104609;1308;72831;-83
2022/03/20 14:10:24;;;;;;;;;;;;;;;22.59;22.92;103079.94;104648;1309;74215;-84
2022/03/20 14:13:36;;;;;;;;;;;;;;;22.59;22.94;103085.30;104604;1307;60479;-82
2022/03/20 14:16:22;;;;;;;;;;;;;;;22.58;22.87;103081.02;104229;1317;60471;-84
2022/03/20 14:19:11;;;;;;;;;;;;;;;22.59;23.12;103081.72;104214;1316;73625;-83
2022/03/20 14:21:57;;;;;;;;;;;;;;;22.59;22.91;103082.05;104079;1317;74020;-87
2022/03/20 14:24:25;;;;;;;;;;;;;;;22.59;22.96;103076.67;103794;1318;60423;-82
2022/03/20 14:27:34;;;;;;;;;;;;;;;;;;;;;
2022/03/20 14:39:48;;;;;;;;;;;;;;;22.58;23.00;103055.21;102765;1330;61781;-80
2022/03/20 14:42:28;;;;;;;;;;;;;;;22.58;23.10;103062.91;102822;1329;74291;-85
2022/03/20 14:45:15;;;;;;;;;;;;;;;;;;;;;
2022/03/20 14:48:09;;;;;;;;;;;;;;;22.57;23.02;103064.02;102790;1329;61230;-84
2022/03/20 14:51:10;;;;;;;;;;;;;;;22.57;23.05;103059.01;102687;1330;62005;-82
2022/03/20 14:54:00;;;;;;;;;;;;;;;22.57;22.89;103049.32;102834;1326;73143;-83
2022/03/20 14:56:41;;;;;;;;;;;;;;;22.57;23.07;103058.27;102878;1326;73863;-85
2022/03/20 14:59:25;;;;;;;;;;;;;;;22.57;22.98;103050.36;102905;1326;60386;-83
2022/03/20 15:02:17;;;;;;;;;;;;;;;22.57;22.89;103048.59;102817;1326;61605;-83
2022/03/20 15:05:09;;;;;;;;;;;;;;;;;;;;;
2022/03/20 15:13:46;;;;;;;;;;;;;;;22.57;23.20;103046.63;103075;1320;61665;-86
2022/03/20 15:16:35;;;;;;;;;;;;;;;22.57;22.95;103042.31;103534;1319;74043;-81
2022/03/20 15:19:21;;;;;;;;;;;;;;;22.57;23.01;103041.60;103317;1321;75359;-80
2022/03/20 15:22:07;;;;;;;;;;;;;;;22.57;23.06;103039.98;103394;1320;60548;-82
2022/03/20 15:24:57;;;;;;;;;;;;;;;22.57;23.06;103039.98;103339;1320;61222;-82
2022/03/20 15:27:26;;;;;;;;;;;;;;;22.57;22.96;103034.04;103612;1313;72910;-81
2022/03/20 15:29:54;;;;;;;;;;;;;;;22.57;22.97;103032.61;104026;1314;74942;-84